Time;durP1;ratioP1;P1;durP2;ratioP2;P2;SDS_P1;SDS_P2;PMS_P1;PMS_P2;Temp;Humidity;BMP_temperature;BMP_pressure;BME280_temperature;BME280_humidity;BME280_pressure;Samples;Min_cycle;Max_cycle;Signal;HPM_P1;HPM_P2
2023/10/01 00:00:05;;;;;;;13.18;4.88;;;15.20;99.90;;;;;;4935499;28;20058;-57
2023/10/01 00:02:32;;;;;;;13.65;5.00;;;15.10;99.90;;;;;;4939532;28;20516;-59
2023/10/01 00:04:58;;;;;;;15.07;4.45;;;15.10;99.90;;;;;;4940500;28;20063;-58
2023/10/01 00:07:23;;;;;;;13.95;4.15;;;15.10;99.90;;;;;;4940231;28;20155;-59
2023/10/01 00:09:49;;;;;;;17.27;4.93;;;15.10;99.90;;;;;;4950879;28;20779;-56
2023/10/01 00:12:15;;;;;;;13.20;4.40;;;15.10;99.90;;;;;;4938831;28;20031;-57
2023/10/01 00:14:41;;;;;;;11.05;3.95;;;15.10;99.90;;;;;;4938669;28;20566;-59
2023/10/01 00:17:07;;;;;;;14.27;4.60;;;15.10;99.90;;;;;;4938098;28;20043;-58
2023/10/01 00:19:33;;;;;;;10.95;4.47;;;15.10;99.90;;;;;;4937471;28;20518;-58
2023/10/01 00:22:00;;;;;;;12.63;3.95;;;15.10;99.90;;;;;;4937782;28;20036;-58
2023/10/01 00:24:26;;;;;;;13.15;4.07;;;15.10;99.90;;;;;;4896946;28;1160373;-58
2023/10/01 00:26:52;;;;;;;11.10;4.00;;;15.10;99.90;;;;;;4938399;28;20582;-59
2023/10/01 00:29:19;;;;;;;12.20;4.32;;;15.10;99.90;;;;;;4941411;28;20047;-58
2023/10/01 00:31:45;;;;;;;16.98;4.60;;;15.10;99.90;;;;;;4938413;28;20482;-59
2023/10/01 00:34:12;;;;;;;15.32;4.60;;;15.10;99.90;;;;;;4937331;28;20602;-57
2023/10/01 00:36:37;;;;;;;13.73;4.25;;;15.10;99.90;;;;;;4939108;28;20397;-58
2023/10/01 00:39:03;;;;;;;13.57;4.93;;;15.10;99.90;;;;;;4936159;28;20031;-58
2023/10/01 00:41:29;;;;;;;14.55;4.22;;;15.10;99.90;;;;;;4940718;28;20070;-58
2023/10/01 00:44:00;;;;;;;16.20;4.38;;;15.10;99.90;;;;;;4938698;28;20877;-59
2023/10/01 00:46:25;;;;;;;15.88;4.40;;;15.10;99.90;;;;;;4938492;28;20043;-58
2023/10/01 00:48:53;;;;;;;15.98;4.60;;;15.10;99.90;;;;;;4921399;28;20057;-57
2023/10/01 00:51:20;;;;;;;13.73;4.38;;;15.10;99.90;;;;;;4941297;28;20047;-57
2023/10/01 00:53:45;;;;;;;14.50;4.35;;;15.00;99.90;;;;;;4957761;28;20042;-58
2023/10/01 00:56:12;;;;;;;13.85;4.50;;;15.10;99.90;;;;;;4943337;28;20523;-57
2023/10/01 00:58:38;;;;;;;12.23;4.88;;;15.00;99.90;;;;;;4942643;28;20403;-59
2023/10/01 01:01:07;;;;;;;16.17;5.18;;;15.00;99.90;;;;;;4941604;28;20483;-58
2023/10/01 01:03:35;;;;;;;14.93;5.10;;;15.00;99.90;;;;;;4935227;28;20043;-57
2023/10/01 01:06:13;;;;;;;12.23;5.05;;;15.00;99.90;;;;;;4938616;28;21476;-59
2023/10/01 01:08:49;;;;;;;16.38;5.50;;;15.00;99.90;;;;;;4939976;28;20463;-57
2023/10/01 01:11:15;;;;;;;17.05;4.95;;;15.00;99.90;;;;;;4940540;28;20051;-58
2023/10/01 01:13:45;;;;;;;20.40;5.32;;;15.00;99.90;;;;;;4937862;28;20105;-56
2023/10/01 01:16:19;;;;;;;17.77;5.32;;;15.00;99.90;;;;;;4938419;28;20039;-58
2023/10/01 01:18:51;;;;;;;11.35;4.90;;;15.00;99.90;;;;;;4939337;28;20082;-57
2023/10/01 01:21:18;;;;;;;14.02;5.50;;;15.00;99.90;;;;;;4940653;28;20511;-59
2023/10/01 01:23:46;;;;;;;12.13;5.55;;;15.00;99.90;;;;;;4910009;28;20035;-59
2023/10/01 01:26:13;;;;;;;14.23;5.25;;;15.00;99.90;;;;;;4935813;28;20459;-59
2023/10/01 01:28:41;;;;;;;15.63;5.32;;;15.00;99.90;;;;;;4937365;28;20090;-58
2023/10/01 01:31:10;;;;;;;15.10;5.35;;;15.00;99.90;;;;;;4936464;28;20051;-57
2023/10/01 01:33:52;;;;;;;12.48;5.00;;;15.00;99.90;;;;;;4936655;28;20051;-58
2023/10/01 01:36:19;;;;;;;14.63;5.65;;;15.00;99.90;;;;;;4938805;28;20053;-59
2023/10/01 01:38:54;;;;;;;16.35;6.30;;;15.00;99.90;;;;;;4937123;28;20040;-59
2023/10/01 01:41:28;;;;;;;18.85;6.22;;;15.00;99.90;;;;;;4940268;28;20184;-57
2023/10/01 01:43:54;;;;;;;13.70;6.07;;;14.90;99.90;;;;;;4940041;28;20130;-57
2023/10/01 01:46:19;;;;;;;16.48;6.45;;;14.90;99.90;;;;;;4940140;28;20055;-59
2023/10/01 01:48:51;;;;;;;15.60;6.13;;;14.90;99.90;;;;;;4938662;28;20077;-57
2023/10/01 01:51:20;;;;;;;14.43;6.65;;;14.90;99.90;;;;;;4939112;28;20499;-58
2023/10/01 01:53:50;;;;;;;17.05;7.28;;;14.90;99.90;;;;;;4940947;28;20066;-57
2023/10/01 01:56:18;;;;;;;16.65;7.15;;;14.90;99.90;;;;;;4939552;28;20054;-58
2023/10/01 01:58:44;;;;;;;17.27;8.20;;;14.90;99.90;;;;;;4940598;28;20051;-57
2023/10/01 02:03:44;;;;;;;14.40;7.22;;;14.90;99.90;;;;;;4932339;28;23783;-58
2023/10/01 02:06:09;;;;;;;16.58;8.05;;;14.90;99.90;;;;;;4935115;28;20043;-59
2023/10/01 02:08:58;;;;;;;16.50;8.73;;;14.90;99.90;;;;;;4936226;28;20058;-59
2023/10/01 02:11:26;;;;;;;19.33;8.88;;;14.90;99.90;;;;;;4949586;28;20420;-57
2023/10/01 02:13:54;;;;;;;17.55;8.30;;;14.90;99.90;;;;;;4933771;28;20043;-58
2023/10/01 02:18:58;;;;;;;21.50;8.90;;;14.90;99.90;;;;;;4937242;28;20094;-57
2023/10/01 02:22:12;;;;;;;22.40;9.45;;;14.90;99.90;;;;;;4935782;28;20054;-59
2023/10/01 02:24:14;;;;;;;20.80;8.95;;;14.90;99.90;;;;;;4925959;28;20051;-58
2023/10/01 02:26:41;;;;;;;13.57;9.05;;;14.80;99.90;;;;;;4937019;28;20047;-58
2023/10/01 02:29:09;;;;;;;20.33;9.27;;;14.80;99.90;;;;;;4935542;28;20054;-58
2023/10/01 02:31:35;;;;;;;20.02;9.05;;;14.90;99.90;;;;;;4920617;28;20070;-58
2023/10/01 02:34:08;;;;;;;18.80;8.88;;;14.90;99.90;;;;;;4935560;28;20055;-58
2023/10/01 02:36:36;;;;;;;21.08;9.40;;;14.80;99.90;;;;;;4933908;28;20132;-59
2023/10/01 02:39:19;;;;;;;20.92;10.13;;;14.90;99.90;;;;;;4939959;28;20551;-59
2023/10/01 02:42:04;;;;;;;17.35;9.02;;;14.80;99.90;;;;;;4941016;28;20066;-58
2023/10/01 02:44:31;;;;;;;24.98;10.40;;;14.80;99.90;;;;;;4940285;28;20093;-58
2023/10/01 02:47:09;;;;;;;25.52;10.55;;;14.80;99.90;;;;;;4924511;28;20548;-57
2023/10/01 02:49:47;;;;;;;20.27;10.20;;;14.80;99.90;;;;;;4940068;28;20383;-57
2023/10/01 02:52:14;;;;;;;19.17;9.98;;;14.80;99.90;;;;;;4939300;28;20035;-58
2023/10/01 02:54:40;;;;;;;21.25;9.60;;;14.80;99.90;;;;;;4940344;28;20035;-58
2023/10/01 02:57:12;;;;;;;23.63;10.18;;;14.80;99.90;;;;;;4941717;28;20106;-58
2023/10/01 03:00:11;;;;;;;20.43;10.10;;;14.80;99.90;;;;;;4942053;28;20047;-59
2023/10/01 03:02:31;;;;;;;18.77;10.02;;;14.80;99.90;;;;;;4938504;28;20496;-58
2023/10/01 03:05:05;;;;;;;19.38;10.30;;;14.80;99.90;;;;;;4936685;28;20039;-57
2023/10/01 03:07:38;;;;;;;18.40;9.77;;;14.80;99.90;;;;;;4953244;28;20510;-58
2023/10/01 03:10:27;;;;;;;23.75;10.52;;;14.80;99.90;;;;;;4938994;28;20050;-59
2023/10/01 03:12:58;;;;;;;19.73;10.23;;;14.80;99.90;;;;;;4937442;28;20395;-58
2023/10/01 03:15:25;;;;;;;20.27;10.15;;;14.80;99.90;;;;;;4920275;29;20170;-58
2023/10/01 03:17:58;;;;;;;19.58;9.35;;;14.80;99.90;;;;;;4939825;28;20047;-58
2023/10/01 03:26:04;;;;;;;27.80;10.60;;;14.80;99.90;;;;;;4953166;28;21362;-59
2023/10/01 03:29:14;;;;;;;21.20;10.18;;;14.80;99.90;;;;;;4959200;28;20046;-57
2023/10/01 03:31:21;;;;;;;18.52;9.38;;;14.80;99.90;;;;;;4958717;28;20062;-58
2023/10/01 03:33:53;;;;;;;17.25;9.02;;;14.80;99.90;;;;;;4958974;28;20050;-58
2023/10/01 03:36:25;;;;;;;19.17;9.50;;;14.80;99.90;;;;;;4958811;28;20475;-59
2023/10/01 03:38:57;;;;;;;19.55;10.10;;;14.80;99.90;;;;;;4943562;28;20043;-58
2023/10/01 03:41:24;;;;;;;22.00;10.05;;;14.80;99.90;;;;;;4958580;28;20478;-58
2023/10/01 03:43:55;;;;;;;18.80;9.85;;;14.80;99.90;;;;;;4958364;28;20062;-59
2023/10/01 03:46:27;;;;;;;18.98;9.65;;;14.80;99.90;;;;;;4957469;28;20470;-58
2023/10/01 03:51:58;;;;;;;18.75;9.43;;;14.80;99.90;;;;;;4957631;28;20043;-59
2023/10/01 03:54:51;;;;;;;15.98;9.00;;;14.80;99.90;;;;;;4958203;28;20035;-59
2023/10/01 03:57:14;;;;;;;19.65;9.35;;;14.80;99.90;;;;;;4959090;28;20062;-57
2023/10/01 03:59:41;;;;;;;15.82;8.98;;;14.80;99.90;;;;;;4942371;28;20574;-58
2023/10/01 04:02:27;;;;;;;23.10;9.52;;;14.80;99.90;;;;;;4941113;28;20039;-57
2023/10/01 04:04:56;;;;;;;17.85;9.50;;;14.80;99.90;;;;;;4958681;28;20082;-58
2023/10/01 04:07:42;;;;;;;17.35;9.45;;;14.80;99.90;;;;;;4957653;28;20050;-56
2023/10/01 04:10:19;;;;;;;17.27;9.13;;;14.80;99.90;;;;;;4957690;28;20114;-58
2023/10/01 04:12:49;;;;;;;18.45;8.95;;;14.80;99.90;;;;;;4956209;28;20117;-57
2023/10/01 04:15:31;;;;;;;18.08;9.68;;;14.80;99.90;;;;;;4958859;28;20047;-57
2023/10/01 04:21:17;;;;;;;;;;;14.90;99.90;;;;;;4957424;28;20452;-58
2023/10/01 04:23:57;;;;;;;18.40;9.20;;;14.90;99.90;;;;;;4957829;28;19921;-59
2023/10/01 04:26:25;;;;;;;17.52;8.93;;;14.90;99.90;;;;;;4961446;28;20737;-59
2023/10/01 04:28:54;;;;;;;16.70;8.88;;;14.90;99.90;;;;;;4960735;28;20050;-58
2023/10/01 04:34:10;;;;;;;19.90;8.85;;;14.90;99.90;;;;;;4961954;28;20051;-59
2023/10/01 04:36:50;;;;;;;16.73;8.98;;;14.90;99.90;;;;;;4955782;28;20082;-59
2023/10/01 04:39:17;;;;;;;14.07;8.57;;;14.90;99.90;;;;;;4963195;28;20047;-58
2023/10/01 04:41:45;;;;;;;19.65;9.18;;;14.90;99.90;;;;;;4961479;28;20085;-58
2023/10/01 04:44:17;;;;;;;19.00;9.05;;;14.90;99.90;;;;;;4961902;28;20592;-59
2023/10/01 04:46:45;;;;;;;15.73;8.60;;;14.90;99.90;;;;;;4961565;28;20061;-58
2023/10/01 04:49:27;;;;;;;14.02;8.82;;;14.90;99.90;;;;;;4961549;28;20698;-58
2023/10/01 04:51:58;;;;;;;13.77;8.75;;;14.90;99.90;;;;;;4961246;28;20043;-59
2023/10/01 04:54:25;;;;;;;16.85;8.52;;;14.90;99.90;;;;;;4962229;28;20077;-59
2023/10/01 04:56:52;;;;;;;19.33;9.13;;;14.90;99.90;;;;;;4945134;28;20054;-58
2023/10/01 04:59:21;;;;;;;18.52;8.52;;;14.90;99.90;;;;;;4944487;28;20582;-58
2023/10/01 05:01:47;;;;;;;20.25;8.63;;;14.90;99.90;;;;;;4960637;28;20042;-58
2023/10/01 05:04:14;;;;;;;18.08;9.35;;;14.80;99.90;;;;;;4957121;28;20042;-58
2023/10/01 05:06:43;;;;;;;20.88;8.90;;;14.80;99.90;;;;;;4956091;28;20546;-58
2023/10/01 05:09:10;;;;;;;14.75;8.38;;;14.90;99.90;;;;;;4961605;28;20174;-59
2023/10/01 05:11:35;;;;;;;19.10;8.93;;;14.80;99.90;;;;;;4957169;28;20058;-59
2023/10/01 05:14:04;;;;;;;18.00;9.15;;;14.90;99.90;;;;;;4956254;28;20055;-59
2023/10/01 05:16:32;;;;;;;14.18;7.95;;;14.90;99.90;;;;;;4940252;28;20055;-58
2023/10/01 05:19:10;;;;;;;17.92;8.60;;;14.80;99.90;;;;;;4958765;28;20042;-58
2023/10/01 05:21:49;;;;;;;18.10;8.65;;;14.90;99.90;;;;;;4959498;28;20121;-57
2023/10/01 05:24:34;;;;;;;17.13;8.77;;;14.80;99.90;;;;;;4974547;28;20051;-57
2023/10/01 05:27:02;;;;;;;21.63;9.32;;;14.80;99.90;;;;;;4943167;28;20074;-58
2023/10/01 05:29:28;;;;;;;16.85;8.95;;;14.80;99.90;;;;;;4942087;28;20046;-58
2023/10/01 05:31:55;;;;;;;16.08;8.48;;;14.80;99.90;;;;;;4939758;28;20043;-59
2023/10/01 05:34:23;;;;;;;17.50;8.65;;;14.80;99.90;;;;;;4926433;29;20134;-57
2023/10/01 05:36:52;;;;;;;15.63;8.40;;;14.80;99.90;;;;;;4934930;28;20503;-57
2023/10/01 05:39:23;;;;;;;19.50;9.68;;;14.80;99.90;;;;;;4942966;28;20047;-57
2023/10/01 05:41:51;;;;;;;15.20;9.05;;;14.80;99.90;;;;;;4942300;28;20051;-58
2023/10/01 05:44:19;;;;;;;16.85;9.30;;;14.80;99.90;;;;;;4940187;28;20408;-57
2023/10/01 05:46:48;;;;;;;15.25;8.80;;;14.80;99.90;;;;;;4921031;29;20051;-58
2023/10/01 05:49:18;;;;;;;17.60;9.30;;;14.70;99.90;;;;;;4941033;28;20146;-57
2023/10/01 05:51:45;;;;;;;18.58;8.95;;;14.70;99.90;;;;;;4954421;28;20043;-58
2023/10/01 05:54:18;;;;;;;18.42;9.48;;;14.70;99.90;;;;;;4940729;28;20055;-58
2023/10/01 05:56:48;;;;;;;22.17;9.00;;;14.70;99.90;;;;;;4942916;28;20039;-58
2023/10/01 05:59:15;;;;;;;17.35;9.07;;;14.70;99.90;;;;;;4953909;28;20097;-57
2023/10/01 06:01:41;;;;;;;19.90;8.88;;;14.80;99.90;;;;;;4940205;28;20500;-58
2023/10/01 06:04:12;;;;;;;19.00;8.95;;;14.70;99.90;;;;;;4939277;28;20571;-59
2023/10/01 06:06:42;;;;;;;19.58;8.95;;;14.70;99.90;;;;;;4939544;28;20478;-58
2023/10/01 06:09:14;;;;;;;19.02;8.70;;;14.70;99.90;;;;;;4942714;28;20122;-58
2023/10/01 06:12:03;;;;;;;18.90;9.43;;;14.70;99.90;;;;;;4941043;28;20134;-58
2023/10/01 06:14:41;;;;;;;18.52;8.65;;;14.70;99.90;;;;;;4939760;28;20322;-59
2023/10/01 06:17:10;;;;;;;19.88;8.60;;;14.60;99.90;;;;;;4939458;28;20496;-58
2023/10/01 06:19:40;;;;;;;18.85;8.27;;;14.70;99.90;;;;;;4938106;28;20043;-58
2023/10/01 06:22:13;;;;;;;15.85;8.45;;;14.70;99.90;;;;;;4922385;28;20051;-58
2023/10/01 06:24:46;;;;;;;15.68;8.02;;;14.70;99.90;;;;;;4937758;28;20233;-57
2023/10/01 06:27:13;;;;;;;15.13;8.20;;;14.70;99.90;;;;;;4940961;28;20420;-59
2023/10/01 06:29:51;;;;;;;15.25;8.27;;;14.70;99.90;;;;;;4956976;28;20050;-58
2023/10/01 06:32:19;;;;;;;19.42;8.38;;;14.70;99.90;;;;;;4940532;28;20479;-58
2023/10/01 06:34:46;;;;;;;16.20;7.65;;;14.70;99.90;;;;;;4929801;29;20047;-57
2023/10/01 06:37:12;;;;;;;19.05;8.38;;;14.70;99.90;;;;;;4919943;28;20109;-57
2023/10/01 06:39:41;;;;;;;15.05;8.05;;;14.70;99.90;;;;;;4941080;28;20039;-57
2023/10/01 06:42:19;;;;;;;18.17;8.48;;;14.80;99.90;;;;;;4923393;29;20530;-58
2023/10/01 06:44:50;;;;;;;15.85;8.43;;;14.80;99.90;;;;;;4939006;28;20087;-58
2023/10/01 06:47:17;;;;;;;17.52;8.32;;;14.80;99.90;;;;;;4936013;28;20212;-57
2023/10/01 06:52:35;;;;;;;15.07;8.00;;;14.80;99.90;;;;;;4940845;28;20487;-58
2023/10/01 06:55:04;;;;;;;17.33;8.85;;;14.90;99.90;;;;;;4938652;28;20058;-58
2023/10/01 06:57:33;;;;;;;18.60;8.40;;;14.90;99.90;;;;;;4941560;28;20043;-58
2023/10/01 07:00:03;;;;;;;17.90;8.07;;;14.90;99.90;;;;;;4939339;28;20376;-59
2023/10/01 07:02:29;;;;;;;15.50;8.30;;;15.00;99.90;;;;;;4939232;28;20039;-58
2023/10/01 07:04:58;;;;;;;22.13;9.32;;;15.00;99.90;;;;;;4935514;28;20070;-58
2023/10/01 07:07:26;;;;;;;18.95;8.27;;;15.00;99.90;;;;;;4940304;28;20118;-58
2023/10/01 07:09:56;;;;;;;17.40;8.27;;;15.00;99.90;;;;;;4938192;28;20047;-58
2023/10/01 07:12:23;;;;;;;20.65;8.50;;;15.10;99.90;;;;;;4937601;28;20055;-59
2023/10/01 07:14:51;;;;;;;17.35;8.70;;;15.20;99.90;;;;;;4936170;28;20043;-57
2023/10/01 07:17:25;;;;;;;20.55;8.15;;;15.20;99.90;;;;;;4933901;28;20117;-57
2023/10/01 07:20:00;;;;;;;24.17;8.38;;;15.30;99.90;;;;;;4933157;28;20057;-59
2023/10/01 07:22:34;;;;;;;24.67;9.07;;;15.30;99.90;;;;;;4917449;28;20049;-58
2023/10/01 07:25:01;;;;;;;20.50;8.40;;;15.30;99.90;;;;;;4938112;28;20106;-59
2023/10/01 07:27:28;;;;;;;15.38;8.45;;;15.40;99.90;;;;;;4955698;28;20074;-59
2023/10/01 07:29:54;;;;;;;19.35;8.55;;;15.40;99.90;;;;;;4953106;28;20510;-57
2023/10/01 07:32:23;;;;;;;17.70;8.00;;;15.40;99.90;;;;;;4954121;28;20050;-58
2023/10/01 07:34:55;;;;;;;17.42;8.68;;;15.50;99.90;;;;;;4952324;28;20158;-58
2023/10/01 07:37:25;;;;;;;15.95;7.95;;;15.50;99.90;;;;;;4952920;28;20558;-58
2023/10/01 07:39:59;;;;;;;16.98;8.05;;;15.50;99.90;;;;;;4958333;28;20039;-57
2023/10/01 07:42:28;;;;;;;18.30;8.00;;;15.50;99.90;;;;;;4961142;28;20137;-58
2023/10/01 07:44:56;;;;;;;25.92;8.23;;;15.60;99.90;;;;;;4958029;28;20570;-59
2023/10/01 07:47:29;;;;;;;16.25;7.53;;;15.60;99.90;;;;;;4959461;28;20050;-58
2023/10/01 07:50:12;;;;;;;;;;;15.60;99.90;;;;;;4957462;28;20495;-59
2023/10/01 07:52:40;;;;;;;15.63;7.38;;;15.60;99.90;;;;;;4953904;28;20421;-58
2023/10/01 08:00:43;;;;;;;20.00;7.97;;;15.60;99.90;;;;;;4959569;28;20414;-59
2023/10/01 08:05:47;;;;;;;16.42;7.15;;;15.60;99.90;;;;;;4957484;28;20039;-59
2023/10/01 08:08:37;;;;;;;17.23;7.88;;;15.60;99.90;;;;;;4936290;28;20054;-58
2023/10/01 08:11:03;;;;;;;15.77;7.47;;;15.60;99.90;;;;;;4961172;28;20093;-57
2023/10/01 08:13:30;;;;;;;21.90;8.40;;;15.60;99.90;;;;;;4958032;28;20494;-59
2023/10/01 08:16:02;;;;;;;20.02;8.10;;;15.70;99.90;;;;;;4938838;28;20055;-58
2023/10/01 08:18:34;;;;;;;19.52;8.52;;;15.70;99.90;;;;;;4957695;28;20483;-58
2023/10/01 08:21:02;;;;;;;17.45;7.50;;;15.70;99.90;;;;;;4957906;28;20579;-58
2023/10/01 08:23:31;;;;;;;14.32;7.45;;;15.70;99.90;;;;;;4961582;28;20416;-59
2023/10/01 08:25:58;;;;;;;19.60;7.85;;;15.70;99.90;;;;;;4943007;28;20087;-59
2023/10/01 08:31:01;;;;;;;18.17;7.72;;;15.80;99.90;;;;;;4958756;28;20301;-58
2023/10/01 08:33:32;;;;;;;21.60;7.47;;;15.90;99.90;;;;;;4944529;29;20042;-57
2023/10/01 08:36:12;;;;;;;18.30;7.38;;;15.90;99.90;;;;;;4944289;29;20047;-57
2023/10/01 08:38:47;;;;;;;16.73;7.88;;;15.90;99.90;;;;;;4943250;28;20419;-59
2023/10/01 08:41:35;;;;;;;16.30;7.80;;;16.00;99.90;;;;;;4942936;28;20039;-58
2023/10/01 08:44:10;;;;;;;19.10;7.43;;;16.00;99.90;;;;;;4943457;28;20050;-58
2023/10/01 08:46:40;;;;;;;17.10;7.65;;;16.10;99.90;;;;;;4943268;28;20046;-59
2023/10/01 08:49:23;;;;;;;18.67;7.68;;;16.20;99.90;;;;;;4942912;28;20046;-59
2023/10/01 08:51:54;;;;;;;14.38;7.10;;;16.20;99.90;;;;;;4944909;29;20051;-59
2023/10/01 08:54:25;;;;;;;16.42;7.90;;;16.20;99.90;;;;;;4942901;28;20047;-58
2023/10/01 08:56:52;;;;;;;16.58;8.13;;;16.20;99.90;;;;;;4944697;29;20141;-59
2023/10/01 08:59:25;;;;;;;21.13;7.95;;;16.20;99.90;;;;;;4942896;29;20048;-58
2023/10/01 09:01:57;;;;;;;20.80;7.35;;;16.30;99.90;;;;;;4956115;28;20050;-57
2023/10/01 09:04:44;;;;;;;14.43;8.18;;;16.30;99.90;;;;;;4942713;29;20118;-58
2023/10/01 09:07:20;;;;;;;16.23;7.72;;;16.40;99.90;;;;;;4942222;29;20114;-58
2023/10/01 09:10:06;;;;;;;21.95;7.10;;;16.40;99.90;;;;;;4945716;28;20047;-59
2023/10/01 09:12:34;;;;;;;18.55;7.50;;;16.50;99.90;;;;;;4930273;29;20086;-58
2023/10/01 09:15:04;;;;;;;15.35;7.50;;;16.60;99.90;;;;;;4947414;28;20122;-58
2023/10/01 09:17:40;;;;;;;21.52;8.52;;;16.70;99.90;;;;;;4946241;29;20044;-57
2023/10/01 09:20:09;;;;;;;19.15;8.07;;;16.80;99.90;;;;;;4960930;28;20046;-58
2023/10/01 09:25:21;;;;;;;16.17;8.23;;;17.20;99.90;;;;;;4935209;28;20463;-58
2023/10/01 09:31:02;;;;;;;19.63;7.20;;;17.60;99.90;;;;;;4947927;28;20548;-59
2023/10/01 09:33:31;;;;;;;20.48;8.35;;;17.80;99.90;;;;;;4947526;29;20082;-59
2023/10/01 09:35:59;;;;;;;20.13;8.07;;;17.90;99.90;;;;;;4946941;29;20399;-59
2023/10/01 09:38:28;;;;;;;23.13;8.50;;;18.00;99.90;;;;;;4960233;28;20526;-59
2023/10/01 09:40:58;;;;;;;20.58;8.27;;;18.10;99.90;;;;;;4944833;28;20039;-59
2023/10/01 09:43:24;;;;;;;22.77;7.72;;;18.30;99.90;;;;;;4946101;28;20051;-59
2023/10/01 09:45:52;;;;;;;19.58;7.43;;;18.40;99.90;;;;;;4947436;28;20040;-57
2023/10/01 09:48:36;;;;;;;19.67;7.40;;;18.40;99.90;;;;;;4948143;28;20053;-59
2023/10/01 09:51:08;;;;;;;20.38;8.18;;;18.50;99.90;;;;;;4947418;28;20047;-59
2023/10/01 09:53:44;;;;;;;21.85;7.95;;;18.60;99.90;;;;;;4946103;28;20524;-60
2023/10/01 09:56:26;;;;;;;20.73;7.80;;;18.60;99.90;;;;;;4945718;28;20058;-60
2023/10/01 09:58:58;;;;;;;;;;;18.60;99.90;;;;;;4945379;28;20043;-58
2023/10/01 10:01:27;;;;;;;20.13;8.60;;;18.70;99.90;;;;;;4945181;28;19973;-59
2023/10/01 10:04:01;;;;;;;16.65;7.25;;;18.70;99.90;;;;;;4947682;28;20051;-60
2023/10/01 10:06:29;;;;;;;20.25;7.90;;;18.90;99.90;;;;;;4946201;28;20046;-60
2023/10/01 10:09:05;;;;;;;21.67;8.40;;;18.90;99.90;;;;;;4945047;28;20039;-60
2023/10/01 10:11:46;;;;;;;25.20;8.52;;;19.00;99.90;;;;;;4944828;28;20054;-60
2023/10/01 10:14:24;;;;;;;19.50;7.88;;;19.10;99.90;;;;;;4944692;28;20639;-60
2023/10/01 10:17:19;;;;;;;24.83;8.10;;;19.20;99.90;;;;;;4944238;28;20385;-60
2023/10/01 10:23:16;;;;;;;17.83;7.55;;;19.60;99.90;;;;;;4943425;28;20493;-58
2023/10/01 10:25:44;;;;;;;23.83;7.43;;;19.80;99.90;;;;;;4947217;28;20055;-61
2023/10/01 10:28:10;;;;;;;20.38;7.65;;;20.10;99.90;;;;;;4929470;29;20083;-59
2023/10/01 10:30:41;;;;;;;20.77;7.65;;;20.30;99.90;;;;;;4945494;29;20054;-60
2023/10/01 10:33:16;;;;;;;18.58;7.45;;;20.50;99.90;;;;;;4946631;29;20047;-59
2023/10/01 10:35:49;;;;;;;25.13;7.88;;;20.60;99.90;;;;;;4944885;29;20573;-60
2023/10/01 10:38:52;;;;;;;25.48;8.00;;;20.70;99.90;;;;;;4958323;28;20091;-59
2023/10/01 10:41:25;;;;;;;20.85;7.55;;;20.70;99.90;;;;;;4944268;29;20496;-60
2023/10/01 10:44:08;;;;;;;;;;;20.70;99.90;;;;;;4944432;28;20632;-60
2023/10/01 10:47:02;;;;;;;17.98;7.57;;;20.70;99.90;;;;;;4944208;29;19985;-61
2023/10/01 10:49:51;;;;;;;17.80;7.05;;;20.70;99.90;;;;;;4945710;28;20082;-60
2023/10/01 10:52:32;;;;;;;19.98;8.35;;;20.70;99.90;;;;;;4946178;28;20464;-59
2023/10/01 10:55:18;;;;;;;18.58;7.45;;;20.60;99.90;;;;;;4945917;28;20043;-60
2023/10/01 10:57:48;;;;;;;16.95;7.22;;;20.60;99.90;;;;;;4945684;28;20054;-60
2023/10/01 11:00:24;;;;;;;20.67;7.90;;;20.60;99.90;;;;;;4945081;28;20094;-60
2023/10/01 11:02:56;;;;;;;20.27;7.63;;;20.60;99.90;;;;;;4945633;28;20048;-60
2023/10/01 11:05:29;;;;;;;18.33;7.50;;;20.60;99.90;;;;;;4928266;28;20563;-60
2023/10/01 11:07:59;;;;;;;18.77;7.22;;;20.60;99.90;;;;;;4944329;28;20070;-59
2023/10/01 11:10:47;;;;;;;18.38;7.85;;;20.60;99.90;;;;;;4945651;28;20074;-60
2023/10/01 11:13:13;;;;;;;19.98;7.90;;;20.60;99.90;;;;;;4923041;28;20102;-61
2023/10/01 11:15:42;;;;;;;18.45;7.95;;;20.60;99.90;;;;;;4944463;29;20415;-60
2023/10/01 11:18:10;;;;;;;21.63;8.40;;;20.60;99.90;;;;;;4944507;29;20047;-61
2023/10/01 11:20:44;;;;;;;19.10;7.40;;;20.60;99.90;;;;;;4945129;28;20451;-61
2023/10/01 11:23:12;;;;;;;20.10;8.00;;;20.60;99.90;;;;;;4944563;29;20043;-61
2023/10/01 11:25:47;;;;;;;20.80;7.40;;;20.60;99.90;;;;;;4928644;28;20051;-59
2023/10/01 11:28:13;;;;;;;16.92;7.18;;;20.70;99.90;;;;;;4945795;28;20056;-61
2023/10/01 11:30:44;;;;;;;20.15;7.53;;;20.80;99.90;;;;;;4945493;28;20106;-60
2023/10/01 11:35:40;;;;;;;15.05;7.07;;;20.90;99.90;;;;;;4959082;28;20499;-60
2023/10/01 11:38:22;;;;;;;22.38;7.95;;;20.90;99.90;;;;;;4943070;28;20046;-61
2023/10/01 11:41:07;;;;;;;18.70;7.90;;;20.90;99.90;;;;;;4943553;28;20050;-61
2023/10/01 11:43:45;;;;;;;17.23;7.75;;;20.90;99.90;;;;;;4945380;28;20039;-60
2023/10/01 11:46:19;;;;;;;17.42;7.13;;;21.00;99.90;;;;;;4922581;29;20055;-61
2023/10/01 11:49:02;;;;;;;19.80;7.85;;;21.00;99.90;;;;;;4944195;28;20054;-60
2023/10/01 11:51:50;;;;;;;;;;;21.10;99.90;;;;;;4945854;28;20042;-60
2023/10/01 11:54:17;;;;;;;17.42;6.97;;;21.10;99.90;;;;;;4944465;28;19930;-61
2023/10/01 11:56:44;;;;;;;17.58;7.72;;;21.10;99.90;;;;;;4944343;28;20070;-61
2023/10/01 11:59:18;;;;;;;18.88;7.20;;;21.10;99.90;;;;;;4942527;28;20079;-61
2023/10/01 12:01:52;;;;;;;15.63;7.10;;;21.10;99.90;;;;;;4944378;28;20495;-59
2023/10/01 12:07:15;;;;;;;22.23;8.13;;;21.10;99.90;;;;;;4943939;29;20492;-60
2023/10/01 12:09:48;;;;;;;18.13;7.95;;;21.10;99.90;;;;;;4944734;28;20417;-59
2023/10/01 12:12:25;;;;;;;19.95;7.32;;;21.00;99.90;;;;;;4943599;29;20578;-61
2023/10/01 12:17:36;;;;;;;21.13;8.00;;;21.10;99.90;;;;;;4942972;29;20122;-59
2023/10/01 12:20:03;;;;;;;17.02;7.53;;;21.10;99.90;;;;;;4942729;29;20039;-61
2023/10/01 12:22:30;;;;;;;14.43;6.68;;;21.20;99.90;;;;;;4945118;29;20046;-60
2023/10/01 12:24:57;;;;;;;17.17;7.82;;;21.20;99.90;;;;;;4944170;29;20039;-60
2023/10/01 12:27:37;;;;;;;18.48;6.95;;;21.20;99.90;;;;;;4937735;28;20059;-61
2023/10/01 12:30:10;;;;;;;17.67;7.60;;;21.30;99.90;;;;;;4943397;29;20070;-60
2023/10/01 12:32:41;;;;;;;14.27;6.65;;;21.30;99.90;;;;;;4944062;29;20134;-60
2023/10/01 12:35:29;;;;;;;18.15;7.65;;;21.30;99.90;;;;;;4943542;29;20510;-60
2023/10/01 12:40:49;;;;;;;19.83;7.70;;;21.50;99.90;;;;;;4943648;29;20043;-60
2023/10/01 12:46:00;;;;;;;16.48;7.93;;;21.80;99.90;;;;;;4947606;29;20043;-59
2023/10/01 12:48:26;;;;;;;16.13;7.38;;;22.10;99.90;;;;;;4947224;28;20051;-61
2023/10/01 12:51:03;;;;;;;17.02;7.82;;;22.30;99.90;;;;;;4945931;29;20053;-60
2023/10/01 12:53:47;;;;;;;19.42;7.95;;;22.50;99.90;;;;;;4946124;28;20137;-60
2023/10/01 12:56:14;;;;;;;22.35;9.07;;;22.60;99.90;;;;;;4946506;29;20048;-60
2023/10/01 12:58:43;;;;;;;18.20;8.00;;;22.70;99.90;;;;;;4947984;29;20472;-59
2023/10/01 13:01:23;;;;;;;18.48;7.68;;;22.70;99.90;;;;;;4947274;29;20039;-59
2023/10/01 13:03:53;;;;;;;18.30;7.63;;;22.80;99.90;;;;;;4948390;29;20061;-61
2023/10/01 13:06:18;;;;;;;18.52;8.00;;;22.70;99.90;;;;;;4945872;29;20062;-59
2023/10/01 13:08:45;;;;;;;19.42;7.68;;;22.70;99.90;;;;;;4946864;28;20051;-61
2023/10/01 13:13:58;;;;;;;16.70;7.18;;;22.60;99.90;;;;;;4933438;28;20051;-60
2023/10/01 13:16:24;;;;;;;17.75;7.53;;;22.50;99.90;;;;;;4932330;28;20049;-60
2023/10/01 13:18:54;;;;;;;14.90;7.15;;;22.60;99.90;;;;;;4931416;28;20458;-60
2023/10/01 13:21:20;;;;;;;15.95;8.07;;;22.60;99.90;;;;;;4936298;28;20466;-59
2023/10/01 13:23:45;;;;;;;20.75;8.00;;;22.60;99.90;;;;;;4954103;28;20043;-60
2023/10/01 13:26:15;;;;;;;25.50;7.75;;;22.70;99.90;;;;;;4940405;28;20043;-61
2023/10/01 13:28:53;;;;;;;24.75;8.88;;;22.60;99.90;;;;;;4963089;28;20400;-59
2023/10/01 13:34:06;;;;;;;20.10;7.78;;;22.50;99.90;;;;;;4954603;28;20057;-58
2023/10/01 13:37:11;;;;;;;20.38;8.45;;;22.50;99.90;;;;;;4954370;28;20071;-61
2023/10/01 14:09:50;;;;;;;17.13;8.20;;;22.70;99.90;;;;;;4963216;28;20526;-60
2023/10/01 14:15:22;;;;;;;18.65;8.65;;;22.60;99.90;;;;;;4958849;28;20046;-59
2023/10/01 14:17:55;;;;;;;18.10;8.35;;;22.50;99.90;;;;;;4958703;28;20047;-60
2023/10/01 14:23:31;;;;;;;22.67;9.00;;;22.40;99.90;;;;;;4962825;28;20503;-60
2023/10/01 14:25:59;;;;;;;20.05;9.20;;;22.30;99.90;;;;;;4962094;28;20045;-61
2023/10/01 14:28:27;;;;;;;20.02;8.63;;;22.30;99.90;;;;;;4942527;28;20055;-60
2023/10/01 14:31:02;;;;;;;16.75;8.30;;;22.20;99.90;;;;;;4953416;28;20035;-60
2023/10/01 14:33:29;;;;;;;22.23;9.10;;;22.20;99.90;;;;;;4935976;28;20047;-60
2023/10/01 14:36:03;;;;;;;18.55;8.68;;;22.20;99.90;;;;;;4938791;28;20381;-60
2023/10/01 14:38:40;;;;;;;18.75;8.70;;;22.10;99.90;;;;;;4938715;28;22246;-61